Time;durP1;ratioP1;P1;durP2;ratioP2;P2;SDS_P1;SDS_P2;PMS_P1;PMS_P2;Temp;Humidity;BMP_temperature;BMP_pressure;BME280_temperature;BME280_humidity;BME280_pressure;Samples;Min_cycle;Max_cycle;Signal;HPM_P1;HPM_P2
2022/04/26 03:36:31;;;;;;;33.42;13.60;;;7.40;99.90;;;;;;5054702;28;20411;-75
2022/04/26 03:38:57;;;;;;;24.98;12.57;;;7.40;99.90;;;;;;5061555;28;20037;-74
2022/04/26 03:41:22;;;;;;;34.65;13.77;;;7.40;99.90;;;;;;5057380;28;20059;-76
2022/04/26 03:43:48;;;;;;;31.02;13.68;;;7.30;99.90;;;;;;5064887;28;20519;-75
2022/04/26 03:46:13;;;;;;;39.85;14.57;;;7.40;99.90;;;;;;5056870;28;20032;-75
2022/04/26 03:48:39;;;;;;;31.08;13.57;;;7.30;99.90;;;;;;5055644;28;20048;-74
2022/04/26 03:51:04;;;;;;;36.67;13.95;;;7.30;99.90;;;;;;5055288;28;20041;-75
2022/04/26 03:53:30;;;;;;;32.75;14.73;;;7.30;99.90;;;;;;5066773;28;20041;-73
2022/04/26 03:55:56;;;;;;;31.23;12.40;;;7.30;99.90;;;;;;5054682;28;20041;-74
2022/04/26 03:58:21;;;;;;;34.10;14.25;;;7.20;99.90;;;;;;5064789;28;20036;-71
2022/04/26 04:00:47;;;;;;;34.42;14.00;;;7.20;99.90;;;;;;5052345;28;20040;-71
2022/04/26 04:03:12;;;;;;;35.55;14.48;;;7.20;99.90;;;;;;5053355;28;20036;-71
2022/04/26 04:06:07;;;;;;;31.27;13.15;;;7.20;99.90;;;;;;5057966;28;20372;-70
2022/04/26 04:08:33;;;;;;;31.55;14.90;;;7.20;99.90;;;;;;5054025;28;20037;-76
2022/04/26 04:10:58;;;;;;;37.47;13.65;;;7.20;99.90;;;;;;5056002;28;20106;-75
2022/04/26 04:13:24;;;;;;;35.05;14.63;;;7.20;99.90;;;;;;5053964;28;20045;-76
2022/04/26 04:15:49;;;;;;;32.47;13.25;;;7.20;99.90;;;;;;5055571;28;20045;-72
2022/04/26 04:19:17;;;;;;;28.23;12.43;;;7.10;99.90;;;;;;5060623;28;20041;-77
2022/04/26 04:21:06;;;;;;;33.15;13.18;;;7.20;99.90;;;;;;5037705;28;20056;-73
2022/04/26 04:23:35;;;;;;;31.30;13.77;;;7.10;99.90;;;;;;5053961;28;20479;-75
2022/04/26 04:26:01;;;;;;;29.67;14.30;;;7.20;99.90;;;;;;5050684;28;20041;-76
2022/04/26 04:28:26;;;;;;;34.35;13.93;;;7.20;99.90;;;;;;5067752;28;20505;-74
2022/04/26 04:30:52;;;;;;;42.42;13.70;;;7.10;99.90;;;;;;5060634;28;20438;-75
2022/04/26 04:33:17;;;;;;;34.45;15.13;;;7.20;99.90;;;;;;5060152;28;20083;-75
2022/04/26 04:35:43;;;;;;;30.52;13.43;;;7.20;99.90;;;;;;5056714;28;20040;-74
2022/04/26 04:38:09;;;;;;;49.35;15.25;;;7.20;99.90;;;;;;5060738;28;20045;-75
2022/04/26 04:40:34;;;;;;;40.28;14.93;;;7.20;99.90;;;;;;5033066;28;20050;-75
2022/04/26 04:43:00;;;;;;;36.40;15.00;;;7.20;99.90;;;;;;5052342;28;20033;-75
2022/04/26 04:45:25;;;;;;;33.65;14.93;;;7.20;99.90;;;;;;5058415;28;20449;-73
2022/04/26 04:47:51;;;;;;;37.42;13.45;;;7.20;99.90;;;;;;5055426;28;20032;-77
2022/04/26 04:50:17;;;;;;;28.20;10.80;;;7.20;99.90;;;;;;5074776;28;20510;-75
2022/04/26 04:52:42;;;;;;;35.47;15.07;;;7.30;99.90;;;;;;5047716;28;20055;-74
2022/04/26 04:55:08;;;;;;;42.33;14.75;;;7.30;99.90;;;;;;5059369;28;20040;-73
2022/04/26 04:57:34;;;;;;;32.83;14.57;;;7.30;99.90;;;;;;5062209;28;20037;-79
2022/04/26 05:00:00;;;;;;;38.45;13.45;;;7.30;99.90;;;;;;5051837;28;20069;-73
2022/04/26 05:02:26;;;;;;;39.25;14.60;;;7.30;99.90;;;;;;5050064;28;20143;-73
2022/04/26 05:04:51;;;;;;;33.17;12.13;;;7.30;99.90;;;;;;5063495;28;20487;-78
2022/04/26 05:07:17;;;;;;;35.55;12.90;;;7.30;99.90;;;;;;5049770;28;20057;-72
2022/04/26 05:09:42;;;;;;;37.10;13.20;;;7.40;99.90;;;;;;5037716;28;20037;-74
2022/04/26 05:12:08;;;;;;;31.83;12.52;;;7.40;99.90;;;;;;5052973;28;20044;-73
2022/04/26 05:14:34;;;;;;;35.10;12.23;;;7.40;99.90;;;;;;5055205;28;20072;-74
2022/04/26 05:16:59;;;;;;;29.10;12.35;;;7.40;99.90;;;;;;5053656;28;20052;-75
2022/04/26 05:19:25;;;;;;;30.05;12.60;;;7.40;99.90;;;;;;5039031;28;20141;-75
2022/04/26 05:21:50;;;;;;;31.77;12.75;;;7.40;99.90;;;;;;5064398;28;20090;-75
2022/04/26 05:27:00;;;;;;;31.25;11.98;;;7.50;99.90;;;;;;5054210;28;20095;-75
2022/04/26 05:29:26;;;;;;;35.50;11.95;;;7.50;99.90;;;;;;5061127;28;20449;-75
2022/04/26 05:31:51;;;;;;;24.90;10.50;;;7.60;99.90;;;;;;5071105;28;20502;-73
2022/04/26 05:34:17;;;;;;;33.33;9.75;;;7.60;99.90;;;;;;5059262;28;20120;-70
2022/04/26 05:36:42;;;;;;;31.90;11.18;;;7.60;99.90;;;;;;5058532;28;20102;-73
2022/04/26 05:39:08;;;;;;;25.05;11.27;;;7.60;99.90;;;;;;5049725;28;20044;-73
2022/04/26 05:41:33;;;;;;;24.65;10.70;;;7.60;99.90;;;;;;5065084;28;20040;-76
2022/04/26 05:43:59;;;;;;;24.73;10.25;;;7.60;99.90;;;;;;5053109;28;20144;-76
2022/04/26 05:46:24;;;;;;;28.70;11.00;;;7.60;99.90;;;;;;5059862;28;20051;-73
2022/04/26 05:48:50;;;;;;;28.83;11.45;;;7.60;99.90;;;;;;5055206;28;20037;-70
2022/04/26 05:51:16;;;;;;;27.83;9.35;;;7.70;99.90;;;;;;5046280;28;20092;-73
2022/04/26 05:53:41;;;;;;;28.77;9.65;;;7.60;99.90;;;;;;5052827;28;20029;-74
2022/04/26 05:56:08;;;;;;;34.35;10.10;;;7.70;99.90;;;;;;5056060;28;20036;-77
2022/04/26 05:58:34;;;;;;;27.17;10.20;;;7.70;99.90;;;;;;5058864;28;20044;-73
2022/04/26 06:01:00;;;;;;;27.02;10.43;;;7.70;99.90;;;;;;5057617;28;20037;-78
2022/04/26 06:03:25;;;;;;;25.25;9.68;;;7.70;99.90;;;;;;5071059;28;20434;-78
2022/04/26 06:05:52;;;;;;;22.92;8.95;;;7.70;99.90;;;;;;5061165;28;20061;-74
2022/04/26 06:08:24;;;;;;;25.70;8.60;;;7.70;99.90;;;;;;5068469;28;20041;-75
2022/04/26 06:10:50;;;;;;;;;;;7.80;99.90;;;;;;5063595;28;20060;-74
2022/04/26 06:13:15;;;;;;;29.00;10.40;;;7.80;99.90;;;;;;5059028;28;19917;-77
2022/04/26 06:15:41;;;;;;;23.70;10.50;;;7.80;99.90;;;;;;5075955;28;20068;-72
2022/04/26 06:18:06;;;;;;;27.40;11.00;;;7.90;99.90;;;;;;5071756;28;20094;-74
2022/04/26 06:20:32;;;;;;;20.60;9.52;;;8.00;99.90;;;;;;5061063;28;20045;-73
2022/04/26 06:22:58;;;;;;;22.95;9.32;;;8.00;99.90;;;;;;5068835;28;20483;-73
2022/04/26 06:25:23;;;;;;;29.08;9.95;;;8.10;99.90;;;;;;5053192;28;20041;-75
2022/04/26 06:27:49;;;;;;;24.05;9.48;;;8.10;99.90;;;;;;5069207;28;20092;-72
2022/04/26 06:30:15;;;;;;;25.48;10.23;;;8.10;99.90;;;;;;5041132;28;20069;-76
2022/04/26 06:32:43;;;;;;;22.40;9.52;;;8.20;99.90;;;;;;5058380;28;20068;-71
2022/04/26 06:35:10;;;;;;;20.90;10.05;;;8.30;99.90;;;;;;5061623;28;20033;-78
2022/04/26 06:37:36;;;;;;;23.70;10.57;;;8.30;99.90;;;;;;5053451;28;20147;-75
2022/04/26 06:40:03;;;;;;;20.48;9.70;;;8.40;99.90;;;;;;5065971;28;20523;-75
2022/04/26 06:42:29;;;;;;;23.10;9.93;;;8.40;99.90;;;;;;5050306;28;20067;-76
2022/04/26 06:45:10;;;;;;;25.13;9.82;;;8.40;99.90;;;;;;5087889;28;20037;-73
2022/04/26 06:47:35;;;;;;;27.20;9.35;;;8.60;99.90;;;;;;5058181;28;20044;-72
2022/04/26 06:50:01;;;;;;;18.98;8.52;;;8.60;99.90;;;;;;5059575;28;20029;-76
2022/04/26 06:52:28;;;;;;;23.80;10.07;;;8.60;99.90;;;;;;5049241;28;20044;-75
2022/04/26 06:54:54;;;;;;;26.15;10.23;;;8.70;99.90;;;;;;5062188;28;20044;-78
2022/04/26 06:57:19;;;;;;;30.08;10.40;;;8.70;99.90;;;;;;5063490;28;20043;-74
2022/04/26 06:59:45;;;;;;;30.48;10.95;;;8.70;99.90;;;;;;5059123;28;20048;-73
2022/04/26 07:02:10;;;;;;;14.23;7.10;;;8.80;99.90;;;;;;5053891;28;20502;-77
2022/04/26 07:04:36;;;;;;;30.48;10.43;;;8.80;99.90;;;;;;5062996;28;20033;-72
2022/04/26 07:07:02;;;;;;;23.38;8.93;;;8.90;99.90;;;;;;5057086;28;20041;-81
2022/04/26 07:09:27;;;;;;;23.77;9.32;;;8.90;99.90;;;;;;5047831;28;20029;-74
2022/04/26 07:11:53;;;;;;;19.27;7.25;;;9.00;99.90;;;;;;5094604;28;20045;-72
2022/04/26 07:14:18;;;;;;;28.48;8.55;;;9.10;99.90;;;;;;5046247;28;20040;-71
2022/04/26 07:16:49;;;;;;;17.52;8.52;;;9.10;99.90;;;;;;5065742;28;20086;-72
2022/04/26 07:19:15;;;;;;;22.13;8.25;;;9.20;99.90;;;;;;5072358;28;20049;-76
2022/04/26 07:21:44;;;;;;;21.50;7.80;;;9.30;99.90;;;;;;5060627;28;20094;-73
2022/04/26 07:24:11;;;;;;;18.80;6.25;;;9.40;99.90;;;;;;5066274;28;20064;-74
2022/04/26 07:26:37;;;;;;;15.45;6.60;;;9.50;99.90;;;;;;5062379;28;20036;-74
2022/04/26 07:29:02;;;;;;;14.20;6.47;;;9.60;99.90;;;;;;5043094;28;20123;-81
2022/04/26 07:31:30;;;;;;;19.08;7.28;;;9.70;99.90;;;;;;5090556;28;20049;-74
2022/04/26 07:36:39;;;;;;;19.15;5.80;;;9.70;99.90;;;;;;5060803;28;20071;-75
2022/04/26 07:39:06;;;;;;;14.35;6.95;;;9.70;99.90;;;;;;5061867;28;20045;-81
2022/04/26 07:41:32;;;;;;;22.52;7.80;;;9.70;99.90;;;;;;5062967;28;20503;-78
2022/04/26 07:43:57;;;;;;;17.80;6.63;;;9.80;99.90;;;;;;5062891;28;20041;-80
2022/04/26 07:46:23;;;;;;;17.77;7.07;;;9.80;99.90;;;;;;5046011;28;20468;-76
2022/04/26 07:48:49;;;;;;;19.35;7.07;;;9.90;99.90;;;;;;5050124;28;20091;-76
2022/04/26 07:51:17;;;;;;;16.60;7.53;;;10.00;99.90;;;;;;5047411;28;20033;-74
2022/04/26 07:53:43;;;;;;;16.40;7.00;;;10.10;99.90;;;;;;5050400;28;20036;-79
2022/04/26 07:56:09;;;;;;;20.10;6.85;;;10.30;99.90;;;;;;5065441;28;20062;-74
2022/04/26 07:58:34;;;;;;;14.10;6.60;;;10.40;99.90;;;;;;5042811;28;20443;-77
2022/04/26 08:01:01;;;;;;;13.90;6.88;;;10.40;99.90;;;;;;5055550;28;20081;-80
2022/04/26 08:03:27;;;;;;;16.48;6.28;;;10.40;99.90;;;;;;5051551;28;20037;-78
2022/04/26 08:05:53;;;;;;;14.90;6.80;;;10.30;99.90;;;;;;5054284;28;20040;-79
2022/04/26 08:08:19;;;;;;;14.07;6.68;;;10.30;99.90;;;;;;5052765;28;20548;-74
2022/04/26 08:10:44;;;;;;;18.90;7.75;;;10.30;99.90;;;;;;5052308;28;20037;-72
2022/04/26 08:13:10;;;;;;;12.73;6.32;;;10.30;99.90;;;;;;5053201;28;20110;-71
2022/04/26 08:15:35;;;;;;;15.35;6.90;;;10.40;99.90;;;;;;5053120;28;20188;-71
2022/04/26 08:18:01;;;;;;;11.35;6.82;;;10.60;99.90;;;;;;5052281;28;20078;-75
2022/04/26 08:20:27;;;;;;;8.70;5.20;;;10.70;99.90;;;;;;5054089;28;20087;-76
2022/04/26 08:22:52;;;;;;;11.77;4.47;;;10.90;99.90;;;;;;5055566;28;20135;-75
2022/04/26 08:28:02;;;;;;;13.82;6.65;;;10.60;99.90;;;;;;5055291;28;20052;-77
2022/04/26 08:30:28;;;;;;;14.27;6.22;;;10.50;99.90;;;;;;5052679;28;20032;-78
2022/04/26 08:32:53;;;;;;;12.77;6.43;;;10.60;99.90;;;;;;5055698;28;20139;-77
2022/04/26 08:35:24;;;;;;;18.08;7.05;;;10.70;99.90;;;;;;5067720;28;20039;-72
2022/04/26 08:37:50;;;;;;;14.45;6.82;;;10.80;99.90;;;;;;5056208;28;20388;-73
2022/04/26 08:40:16;;;;;;;16.48;7.43;;;11.10;99.90;;;;;;5051081;28;20071;-76
2022/04/26 08:42:46;;;;;;;16.08;6.82;;;11.30;99.90;;;;;;5053905;28;20055;-75
2022/04/26 08:45:17;;;;;;;13.27;6.55;;;11.30;99.90;;;;;;5071769;28;20115;-73
2022/04/26 08:53:16;;;;;;;13.55;6.20;;;11.20;99.90;;;;;;5031610;28;20048;-79
2022/04/26 08:55:44;;;;;;;13.13;6.22;;;11.10;99.90;;;;;;5046668;28;20065;-76
2022/04/26 08:58:11;;;;;;;10.75;5.00;;;11.00;99.90;;;;;;5052682;28;20049;-79
2022/04/26 09:00:42;;;;;;;12.02;6.00;;;11.00;99.90;;;;;;5070316;28;20044;-80
2022/04/26 09:03:08;;;;;;;10.27;5.18;;;10.90;99.90;;;;;;5066163;28;20033;-74
2022/04/26 09:05:35;;;;;;;17.67;5.60;;;11.10;99.90;;;;;;5085463;28;20038;-76
2022/04/26 09:08:18;;;;;;;12.52;5.53;;;11.20;99.90;;;;;;5051809;28;20040;-79
2022/04/26 09:10:48;;;;;;;11.90;6.30;;;11.30;99.90;;;;;;5034350;28;20025;-70
2022/04/26 09:13:15;;;;;;;13.25;6.22;;;11.40;99.90;;;;;;5050084;28;20821;-79
2022/04/26 09:15:54;;;;;;;8.18;4.07;;;11.60;99.90;;;;;;5072665;28;20051;-76
2022/04/26 09:18:27;;;;;;;12.55;5.15;;;11.80;99.90;;;;;;5070261;28;20048;-75
2022/04/26 09:21:09;;;;;;;9.15;4.28;;;11.90;99.90;;;;;;5051565;28;20045;-75
2022/04/26 09:23:38;;;;;;;13.38;4.47;;;11.80;99.90;;;;;;5050778;28;20037;-77
2022/04/26 09:26:08;;;;;;;9.85;5.00;;;11.70;99.90;;;;;;5046105;28;20056;-77
2022/04/26 09:28:44;;;;;;;11.68;5.90;;;11.80;99.90;;;;;;5029660;28;20048;-72
2022/04/26 09:31:39;;;;;;;13.23;5.90;;;11.80;99.90;;;;;;5030350;28;20045;-82
2022/04/26 09:34:12;;;;;;;12.80;6.00;;;12.00;99.90;;;;;;5047447;28;20136;-75
2022/04/26 09:36:46;;;;;;;12.57;6.40;;;12.30;99.90;;;;;;5063366;28;20084;-84
2022/04/26 09:39:17;;;;;;;15.15;6.05;;;12.50;99.90;;;;;;5063612;28;20041;-78
2022/04/26 09:41:49;;;;;;;12.07;5.90;;;12.80;99.90;;;;;;5078258;28;20045;-74
2022/04/26 09:44:15;;;;;;;14.07;5.73;;;13.10;99.90;;;;;;5051584;28;20091;-80
2022/04/26 09:46:40;;;;;;;12.73;5.07;;;13.30;99.90;;;;;;5040771;28;20128;-77
2022/04/26 09:49:09;;;;;;;8.13;3.83;;;13.30;99.90;;;;;;5033518;28;20033;-72
2022/04/26 09:51:36;;;;;;;11.88;4.90;;;13.20;99.90;;;;;;5049632;28;20189;-73
2022/04/26 09:54:03;;;;;;;9.73;4.65;;;12.80;99.90;;;;;;5051131;28;20094;-75
2022/04/26 09:56:30;;;;;;;12.35;4.97;;;12.40;99.90;;;;;;5050039;28;20060;-77
2022/04/26 09:58:58;;;;;;;9.05;3.72;;;12.20;99.90;;;;;;5034915;28;20045;-70
2022/04/26 10:01:29;;;;;;;21.83;4.65;;;12.20;99.90;;;;;;5032908;28;20495;-78
2022/04/26 10:04:03;;;;;;;12.20;4.53;;;12.40;99.90;;;;;;5047545;28;20041;-71
2022/04/26 10:06:37;;;;;;;10.27;4.50;;;12.30;99.90;;;;;;5072359;28;20036;-76
2022/04/26 10:09:04;;;;;;;12.25;5.00;;;12.50;99.90;;;;;;5052031;28;20508;-76
2022/04/26 10:11:30;;;;;;;13.93;5.50;;;12.40;99.90;;;;;;5050944;28;20187;-73
2022/04/26 10:13:57;;;;;;;12.25;5.07;;;12.40;99.90;;;;;;5059729;28;20130;-74
2022/04/26 10:16:24;;;;;;;9.82;4.60;;;12.40;99.90;;;;;;5058568;28;20045;-73
2022/04/26 10:18:50;;;;;;;11.15;5.20;;;12.40;99.90;;;;;;5047918;28;20079;-73
2022/04/26 10:21:22;;;;;;;10.13;4.03;;;12.30;99.90;;;;;;5048811;28;20041;-73
2022/04/26 10:23:50;;;;;;;9.80;4.13;;;12.30;99.90;;;;;;5049615;28;20602;-70
2022/04/26 10:28:59;;;;;;;9.32;4.18;;;12.10;99.90;;;;;;5053800;28;20048;-72
2022/04/26 10:31:40;;;;;;;10.75;4.47;;;12.10;99.90;;;;;;5053624;28;20495;-70
2022/04/26 10:34:18;;;;;;;12.98;4.68;;;12.10;99.90;;;;;;5032956;28;20041;-73
2022/04/26 10:36:47;;;;;;;14.45;4.70;;;12.30;99.90;;;;;;5084440;28;20063;-71
2022/04/26 10:39:13;;;;;;;9.75;4.60;;;12.20;99.90;;;;;;5083491;28;20464;-76
2022/04/26 10:41:43;;;;;;;12.45;4.70;;;12.10;99.90;;;;;;5050490;28;20076;-73
2022/04/26 10:44:15;;;;;;;7.60;3.58;;;12.20;99.90;;;;;;5052253;28;20037;-70
2022/04/26 10:46:41;;;;;;;9.20;3.13;;;12.40;99.90;;;;;;5049828;28;20037;-76
2022/04/26 10:49:25;;;;;;;10.73;4.03;;;12.50;99.90;;;;;;5033591;28;20037;-72
2022/04/26 10:51:57;;;;;;;13.13;5.10;;;12.50;99.90;;;;;;5035754;28;20623;-81
2022/04/26 10:55:03;;;;;;;13.52;4.68;;;12.70;99.90;;;;;;5066632;28;20503;-73
2022/04/26 10:57:33;;;;;;;7.50;3.88;;;13.10;99.90;;;;;;5034288;28;20461;-75
2022/04/26 10:59:59;;;;;;;7.60;4.28;;;13.10;99.90;;;;;;5035045;28;20041;-78
2022/04/26 11:02:29;;;;;;;10.27;4.35;;;13.20;99.90;;;;;;5061085;28;20124;-78
2022/04/26 11:04:59;;;;;;;10.82;4.15;;;13.30;99.90;;;;;;5052774;28;20039;-74
2022/04/26 11:07:27;;;;;;;8.18;4.10;;;13.50;99.90;;;;;;5053709;28;20438;-79
2022/04/26 11:09:54;;;;;;;13.80;5.13;;;13.50;99.90;;;;;;5046920;28;20072;-78
2022/04/26 11:12:32;;;;;;;12.27;4.82;;;13.40;99.90;;;;;;5017275;28;20438;-83
2022/04/26 11:15:00;;;;;;;10.95;4.55;;;13.60;99.90;;;;;;5034057;28;20045;-72
2022/04/26 11:17:27;;;;;;;10.07;4.43;;;13.80;99.90;;;;;;5049399;28;20042;-77
2022/04/26 11:19:58;;;;;;;9.00;4.63;;;14.00;99.90;;;;;;5049153;28;20049;-76
2022/04/26 11:22:26;;;;;;;11.45;3.67;;;13.90;99.90;;;;;;5047595;28;20125;-76
2022/04/26 11:28:11;;;;;;;7.35;4.35;;;13.30;99.90;;;;;;5051541;28;20052;-74
2022/04/26 11:30:42;;;;;;;9.15;4.75;;;13.30;99.90;;;;;;5049028;28;20040;-75
2022/04/26 11:33:22;;;;;;;10.27;4.43;;;13.20;99.90;;;;;;5048747;28;20049;-77
2022/04/26 11:36:04;;;;;;;7.40;3.58;;;13.40;99.90;;;;;;5041389;28;20116;-75
2022/04/26 11:38:30;;;;;;;7.25;3.67;;;13.50;99.90;;;;;;5051718;28;20514;-70
2022/04/26 11:40:58;;;;;;;6.63;3.15;;;13.60;95.10;;;;;;5048707;28;20053;-72
2022/04/26 11:43:31;;;;;;;11.60;3.88;;;13.40;95.10;;;;;;5052481;28;20170;-74
2022/04/26 11:45:57;;;;;;;7.55;3.60;;;13.30;98.10;;;;;;5064116;28;20043;-77
2022/04/26 11:48:25;;;;;;;7.18;4.03;;;13.30;99.90;;;;;;5053383;28;20098;-77
2022/04/26 11:50:53;;;;;;;7.70;3.25;;;13.40;99.50;;;;;;5048230;28;20076;-75
2022/04/26 11:53:24;;;;;;;8.23;3.78;;;13.50;99.90;;;;;;5051594;28;20047;-75
2022/04/26 11:55:58;;;;;;;8.23;2.95;;;13.60;93.80;;;;;;5084014;28;20123;-71
2022/04/26 11:58:36;;;;;;;7.97;4.03;;;13.40;95.50;;;;;;5051879;28;20071;-74
2022/04/26 12:01:12;;;;;;;8.82;4.28;;;13.10;94.60;;;;;;5052953;28;20480;-74
2022/04/26 12:03:59;;;;;;;9.18;3.67;;;13.10;97.10;;;;;;5050541;28;20120;-72
2022/04/26 12:06:35;;;;;;;6.35;3.42;;;13.40;99.50;;;;;;5034369;28;20220;-70
2022/04/26 12:09:15;;;;;;;8.70;4.43;;;13.50;97.60;;;;;;5053054;28;20086;-79
2022/04/26 12:11:41;;;;;;;6.97;3.92;;;13.50;96.20;;;;;;5052585;28;20099;-76
2022/04/26 12:14:12;;;;;;;9.43;3.72;;;13.60;99.90;;;;;;5051650;28;20041;-76
2022/04/26 12:16:45;;;;;;;13.23;4.15;;;13.60;99.40;;;;;;5053569;28;20052;-76
2022/04/26 12:19:11;;;;;;;11.45;3.88;;;13.70;99.40;;;;;;5054820;28;20049;-78
2022/04/26 12:21:49;;;;;;;7.18;3.10;;;13.90;99.90;;;;;;5049601;28;20045;-70
2022/04/26 12:24:23;;;;;;;7.95;3.90;;;14.00;98.30;;;;;;5050619;28;20041;-78
2022/04/26 12:26:57;;;;;;;8.98;3.65;;;14.00;95.20;;;;;;5039844;28;20519;-71
2022/04/26 12:29:44;;;;;;;7.05;3.47;;;13.90;99.50;;;;;;5034562;28;20136;-78
2022/04/26 12:32:18;;;;;;;6.03;3.22;;;13.90;95.80;;;;;;5050764;28;20377;-77
2022/04/26 12:34:58;;;;;;;10.20;3.75;;;13.90;94.40;;;;;;5037419;28;20060;-75
2022/04/26 12:37:29;;;;;;;7.43;3.83;;;13.90;97.30;;;;;;5033768;28;20053;-73
2022/04/26 12:40:00;;;;;;;7.78;3.70;;;14.10;98.00;;;;;;5031578;28;20132;-81
2022/04/26 12:42:28;;;;;;;6.00;3.00;;;14.20;93.50;;;;;;5030007;28;20045;-69
2022/04/26 12:45:00;;;;;;;8.68;3.15;;;14.10;88.10;;;;;;5031575;28;20041;-70
2022/04/26 12:50:29;;;;;;;8.77;3.45;;;13.40;94.80;;;;;;5045231;28;20091;-77
2022/04/26 12:53:04;;;;;;;6.78;3.53;;;13.20;93.90;;;;;;5066891;28;20065;-74
2022/04/26 12:55:35;;;;;;;9.18;3.95;;;13.10;96.30;;;;;;5079362;28;20083;-75
2022/04/26 12:58:13;;;;;;;6.78;3.53;;;13.30;96.50;;;;;;5053747;28;20054;-76
2022/04/26 13:00:40;;;;;;;10.23;3.38;;;13.30;94.00;;;;;;5070092;28;20449;-76
2022/04/26 13:03:07;;;;;;;7.65;3.20;;;13.50;97.90;;;;;;5066224;28;20053;-78
2022/04/26 13:05:45;;;;;;;4.65;3.50;;;13.80;85.50;;;;;;5048508;28;20052;-69
2022/04/26 13:08:11;;;;;;;7.78;3.78;;;14.10;92.00;;;;;;5050696;28;20048;-75
2022/04/26 13:10:39;;;;;;;8.13;4.25;;;14.00;95.90;;;;;;5043676;28;20234;-77
2022/04/26 13:13:05;;;;;;;7.70;4.20;;;14.00;93.10;;;;;;5030251;28;20453;-73
2022/04/26 13:15:31;;;;;;;6.03;4.10;;;13.80;97.30;;;;;;5033564;28;20108;-75
2022/04/26 13:17:59;;;;;;;9.55;3.70;;;13.80;98.40;;;;;;5051724;28;20090;-77
2022/04/26 13:20:25;;;;;;;4.53;3.20;;;13.80;96.50;;;;;;5048535;28;20040;-71
2022/04/26 13:22:51;;;;;;;8.50;3.78;;;13.80;90.00;;;;;;5048733;28;20041;-72
2022/04/26 13:25:16;;;;;;;7.32;3.40;;;13.70;97.10;;;;;;5048232;28;20450;-72
2022/04/26 13:27:42;;;;;;;7.25;4.10;;;13.50;99.00;;;;;;5046966;28;20041;-77
2022/04/26 13:30:08;;;;;;;7.88;3.97;;;13.40;99.80;;;;;;5049160;28;20042;-78
2022/04/26 13:32:34;;;;;;;7.07;3.67;;;13.40;99.10;;;;;;5051624;28;20170;-73
2022/04/26 13:35:00;;;;;;;6.70;2.97;;;13.60;95.70;;;;;;5047806;28;20124;-70
2022/04/26 13:37:27;;;;;;;9.68;3.42;;;13.90;95.30;;;;;;5082522;28;20121;-77
2022/04/26 13:39:54;;;;;;;5.38;4.00;;;13.80;86.00;;;;;;5049095;28;20055;-75
2022/04/26 13:42:24;;;;;;;9.45;4.07;;;13.60;88.20;;;;;;5067310;28;20440;-79
2022/04/26 13:44:52;;;;;;;7.20;3.75;;;13.50;94.90;;;;;;5049723;28;20120;-78
2022/04/26 13:47:18;;;;;;;7.20;3.92;;;13.40;98.90;;;;;;5050635;28;20036;-76
2022/04/26 13:49:44;;;;;;;7.20;3.38;;;13.40;97.60;;;;;;5066287;28;20037;-76
2022/04/26 13:52:09;;;;;;;8.90;4.80;;;13.40;96.40;;;;;;5049760;28;20102;-78
2022/04/26 13:54:36;;;;;;;9.82;4.22;;;13.50;99.90;;;;;;5068086;28;20094;-76
2022/04/26 13:57:02;;;;;;;5.22;3.47;;;13.60;99.90;;;;;;5082867;28;20051;-79
2022/04/26 13:59:28;;;;;;;7.00;4.07;;;13.70;93.80;;;;;;5047086;28;20049;-77
2022/04/26 14:01:54;;;;;;;7.18;3.92;;;13.60;94.10;;;;;;5041227;28;20507;-76
2022/04/26 14:04:24;;;;;;;8.18;3.92;;;13.70;97.30;;;;;;5031577;28;20081;-79
2022/04/26 14:06:49;;;;;;;8.57;4.10;;;13.90;97.30;;;;;;5041000;28;20453;-77
2022/04/26 14:09:17;;;;;;;9.90;3.95;;;14.10;97.30;;;;;;5050358;28;20029;-78
2022/04/26 14:11:43;;;;;;;5.00;3.83;;;14.20;95.90;;;;;;5048477;28;20076;-78
2022/04/26 14:22:21;;;;;;;9.85;4.10;;;14.40;88.80;;;;;;5055310;28;20090;-77
2022/04/26 14:24:52;;;;;;;5.20;3.42;;;14.50;95.30;;;;;;5056808;28;20424;-79
2022/04/26 14:27:18;;;;;;;5.20;3.70;;;14.60;87.00;;;;;;5063441;28;20063;-80
2022/04/26 14:29:43;;;;;;;7.90;3.95;;;14.60;91.30;;;;;;5064539;28;20041;-76
2022/04/26 14:32:09;;;;;;;6.07;3.72;;;14.60;93.50;;;;;;5061741;28;20033;-75
2022/04/26 14:34:36;;;;;;;6.32;3.53;;;14.80;84.90;;;;;;5065199;28;20041;-78
2022/04/26 14:37:03;;;;;;;5.97;3.75;;;14.80;79.00;;;;;;5065698;28;20044;-78
2022/04/26 14:39:29;;;;;;;6.32;3.55;;;14.90;90.10;;;;;;5072507;28;20471;-78
2022/04/26 14:41:54;;;;;;;7.28;4.63;;;15.00;90.90;;;;;;5055357;28;20036;-73
2022/04/26 14:44:20;;;;;;;7.07;3.35;;;14.70;76.00;;;;;;5051637;28;20040;-71
2022/04/26 14:46:46;;;;;;;7.40;3.72;;;14.40;82.10;;;;;;5038502;28;20408;-79
2022/04/26 14:49:11;;;;;;;9.18;4.50;;;14.10;78.60;;;;;;5066511;28;20041;-79
2022/04/26 14:51:37;;;;;;;7.32;4.20;;;13.90;90.80;;;;;;5033534;28;20048;-79
2022/04/26 14:54:02;;;;;;;5.38;3.92;;;13.90;93.60;;;;;;5072058;28;20503;-77
2022/04/26 14:56:28;;;;;;;13.07;4.25;;;14.20;97.00;;;;;;5036519;28;20097;-76
2022/04/26 14:58:53;;;;;;;7.78;3.75;;;14.50;92.30;;;;;;5051364;28;20052;-76
2022/04/26 15:01:19;;;;;;;6.80;3.58;;;14.80;92.60;;;;;;5050224;28;20049;-73
2022/04/26 15:03:45;;;;;;;6.55;3.55;;;15.00;74.20;;;;;;5051163;28;20044;-66
2022/04/26 15:06:11;;;;;;;5.00;3.00;;;15.10;86.60;;;;;;5051448;28;20053;-70
2022/04/26 15:11:35;;;;;;;4.35;3.55;;;14.50;87.40;;;;;;5039766;28;20059;-73
2022/04/26 15:16:47;;;;;;;6.63;3.78;;;13.90;97.80;;;;;;5051997;28;20412;-75
2022/04/26 15:19:14;;;;;;;6.50;3.70;;;14.10;89.40;;;;;;5051349;28;20124;-72
2022/04/26 15:21:42;;;;;;;7.53;3.30;;;14.30;95.50;;;;;;5052697;28;20036;-68
2022/04/26 15:24:08;;;;;;;11.13;4.40;;;14.30;97.40;;;;;;5041831;28;20307;-69
2022/04/26 15:26:34;;;;;;;5.50;3.42;;;14.00;97.30;;;;;;5077670;28;20033;-71
2022/04/26 15:29:00;;;;;;;7.35;3.95;;;13.80;99.40;;;;;;5047987;28;20052;-69
2022/04/26 15:31:26;;;;;;;8.23;3.83;;;13.70;99.90;;;;;;5049566;28;20488;-72
2022/04/26 15:33:52;;;;;;;7.68;3.70;;;13.60;99.90;;;;;;5044855;28;20052;-71
2022/04/26 15:36:19;;;;;;;9.32;4.45;;;13.50;99.60;;;;;;5035307;28;20037;-69
2022/04/26 15:38:46;;;;;;;8.85;4.45;;;13.50;99.90;;;;;;5047898;28;20162;-72
2022/04/26 15:41:12;;;;;;;6.63;3.45;;;13.60;99.90;;;;;;5049560;28;20489;-73
2022/04/26 15:43:39;;;;;;;11.35;4.50;;;13.70;99.90;;;;;;5049261;28;20419;-73
2022/04/26 15:46:11;;;;;;;8.30;5.28;;;13.90;99.90;;;;;;5049760;28;20072;-80
2022/04/26 15:48:44;;;;;;;9.75;4.10;;;14.10;99.90;;;;;;5050068;28;20102;-69
2022/04/26 15:51:10;;;;;;;6.60;3.67;;;14.20;99.90;;;;;;5049024;28;20045;-69
2022/04/26 15:53:37;;;;;;;10.60;4.15;;;14.40;99.90;;;;;;5050470;28;20049;-79
2022/04/26 15:56:03;;;;;;;10.60;4.00;;;14.30;94.90;;;;;;5033366;28;20056;-76
2022/04/26 15:58:28;;;;;;;9.68;4.13;;;13.90;95.90;;;;;;5049829;28;20387;-78
2022/04/26 16:00:55;;;;;;;8.57;3.92;;;13.40;99.40;;;;;;5050060;28;20033;-76
2022/04/26 16:03:21;;;;;;;6.50;3.00;;;12.90;99.90;;;;;;5049881;28;20055;-70
2022/04/26 16:05:47;;;;;;;4.93;3.30;;;12.70;99.90;;;;;;5048961;28;20037;-70
2022/04/26 16:08:14;;;;;;;8.77;4.15;;;12.50;99.90;;;;;;5048910;28;20036;-73
2022/04/26 16:21:37;;;;;;;10.50;3.28;;;12.00;99.90;;;;;;5030878;28;20060;-68
2022/04/26 16:24:03;;;;;;;8.60;3.53;;;12.00;99.90;;;;;;5045587;28;20037;-71
2022/04/26 16:26:30;;;;;;;8.88;3.72;;;12.20;99.90;;;;;;5049625;28;20029;-74
2022/04/26 16:28:56;;;;;;;9.48;4.18;;;12.50;99.90;;;;;;5048704;28;20503;-77
2022/04/26 16:31:28;;;;;;;9.25;4.05;;;13.00;99.90;;;;;;5047892;28;20029;-69
2022/04/26 16:33:55;;;;;;;10.10;4.93;;;13.30;99.30;;;;;;5047912;28;20048;-71
2022/04/26 16:36:21;;;;;;;9.18;3.72;;;13.50;99.60;;;;;;5045387;28;20323;-74
2022/04/26 16:38:47;;;;;;;8.07;4.28;;;13.80;96.10;;;;;;5046893;28;20499;-74
2022/04/26 16:41:12;;;;;;;8.10;3.70;;;14.10;96.20;;;;;;5064785;28;20135;-71
2022/04/26 16:43:39;;;;;;;6.45;3.10;;;14.30;93.00;;;;;;5046072;28;20033;-72
2022/04/26 16:46:06;;;;;;;8.45;4.50;;;14.50;86.90;;;;;;5048332;28;20068;-77
2022/04/26 16:48:33;;;;;;;7.63;4.20;;;14.60;93.90;;;;;;5058741;28;20106;-76
2022/04/26 16:50:58;;;;;;;6.88;4.25;;;14.90;91.00;;;;;;5061190;28;20426;-71
2022/04/26 16:53:24;;;;;;;8.77;4.07;;;15.00;89.80;;;;;;5045607;28;20037;-73
2022/04/26 16:55:49;;;;;;;8.20;4.18;;;15.10;79.10;;;;;;5048372;28;20040;-71
2022/04/26 16:58:16;;;;;;;9.55;4.18;;;15.30;67.80;;;;;;5047614;28;20143;-70
2022/04/26 17:00:44;;;;;;;7.22;3.90;;;15.40;70.10;;;;;;5047256;28;20095;-74
2022/04/26 17:03:10;;;;;;;6.88;3.45;;;15.40;65.80;;;;;;5041880;28;20049;-71
2022/04/26 17:05:36;;;;;;;9.45;3.88;;;15.20;74.50;;;;;;5056040;28;20090;-74
2022/04/26 17:08:02;;;;;;;5.80;3.90;;;14.60;76.10;;;;;;5068758;28;20141;-74
2022/04/26 17:10:28;;;;;;;8.40;3.78;;;13.70;91.80;;;;;;5068897;28;20123;-70